Time;durP1;ratioP1;P1;durP2;ratioP2;P2;SDS_P1;SDS_P2;PMS_P1;PMS_P2;Temp;Humidity;BMP_temperature;BMP_pressure;BME280_temperature;BME280_humidity;BME280_pressure;Samples;Min_cycle;Max_cycle;Signal;HPM_P1;HPM_P2
2023/07/04 00:00:35;;;;;;;14.80;13.80;;;14.30;1.00;;;;;;5082809;28;20982;-48
2023/07/04 00:03:01;;;;;;;15.23;14.13;;;14.30;1.00;;;;;;5089600;28;20302;-49
2023/07/04 00:05:27;;;;;;;14.83;13.83;;;14.30;99.90;;;;;;5089599;28;20177;-49
2023/07/04 00:07:52;;;;;;;15.80;14.57;;;14.30;99.90;;;;;;5089784;28;20271;-51
2023/07/04 00:10:20;;;;;;;15.07;14.07;;;14.20;99.90;;;;;;5089513;28;20185;-49
2023/07/04 00:12:46;;;;;;;14.97;13.87;;;14.20;99.90;;;;;;5089539;28;20177;-47
2023/07/04 00:15:14;;;;;;;14.87;13.90;;;14.20;1.00;;;;;;5089784;28;20480;-48
2023/07/04 00:17:42;;;;;;;14.40;13.50;;;14.20;99.90;;;;;;5088158;28;20954;-51
2023/07/04 00:20:08;;;;;;;14.57;13.57;;;14.10;1.00;;;;;;5089387;28;20462;-51
2023/07/04 00:22:35;;;;;;;15.23;14.23;;;14.10;1.00;;;;;;5089544;28;20410;-45
2023/07/04 00:25:01;;;;;;;15.00;14.00;;;14.10;1.00;;;;;;5089000;28;20478;-50
2023/07/04 00:27:27;;;;;;;15.03;14.03;;;14.10;1.00;;;;;;5089249;28;20497;-50
2023/07/04 00:29:52;;;;;;;14.40;13.60;;;14.10;1.00;;;;;;5088863;28;20181;-42
2023/07/04 00:32:18;;;;;;;14.93;13.80;;;14.10;1.00;;;;;;5089042;28;20588;-46
2023/07/04 00:34:45;;;;;;;15.20;13.93;;;14.10;1.00;;;;;;5089172;28;20231;-44
2023/07/04 00:37:11;;;;;;;14.27;13.47;;;14.10;1.00;;;;;;5089227;28;20279;-45
2023/07/04 00:39:37;;;;;;;15.40;14.00;;;14.10;1.00;;;;;;5087455;28;21034;-46
2023/07/04 00:42:07;;;;;;;14.20;13.23;;;14.00;91.20;;;;;;5089365;28;20458;-46
2023/07/04 00:44:37;;;;;;;15.63;14.43;;;14.00;33.30;;;;;;5088905;28;20415;-44
2023/07/04 00:47:21;;;;;;;15.07;13.80;;;14.00;99.90;;;;;;5076163;28;20587;-47
2023/07/04 00:49:49;;;;;;;14.87;13.97;;;14.00;99.90;;;;;;5077071;28;20423;-42
2023/07/04 00:52:24;;;;;;;14.30;13.47;;;14.00;1.00;;;;;;5088969;28;20465;-43
2023/07/04 00:54:54;;;;;;;14.40;13.40;;;14.00;1.00;;;;;;5079210;28;20497;-44
2023/07/04 00:57:21;;;;;;;13.97;13.17;;;14.10;1.00;;;;;;5088827;28;20418;-46
2023/07/04 00:59:52;;;;;;;14.60;13.70;;;14.00;1.00;;;;;;5083911;28;20953;-46
2023/07/04 01:02:21;;;;;;;14.70;13.70;;;14.10;1.00;;;;;;5086574;28;20469;-44
2023/07/04 01:04:49;;;;;;;14.20;13.30;;;14.10;1.00;;;;;;5088891;28;20912;-45
2023/07/04 01:07:53;;;;;;;14.40;13.40;;;14.10;1.00;;;;;;5088657;28;20468;-45
2023/07/04 01:10:32;;;;;;;13.27;12.50;;;14.10;99.90;;;;;;5088564;28;20429;-46
2023/07/04 01:12:58;;;;;;;14.67;13.67;;;14.00;1.00;;;;;;5088825;28;20428;-44
2023/07/04 01:15:24;;;;;;;14.43;13.43;;;14.00;99.90;;;;;;5088831;28;20434;-42
2023/07/04 01:17:53;;;;;;;14.50;13.50;;;14.00;1.00;;;;;;5088644;28;20417;-51
2023/07/04 01:20:19;;;;;;;14.27;13.40;;;13.90;23.30;;;;;;5088314;28;20824;-47
2023/07/04 01:23:08;;;;;;;14.50;13.70;;;13.90;1.00;;;;;;5088565;28;20410;-46
2023/07/04 01:25:46;;;;;;;14.30;13.50;;;13.90;1.00;;;;;;5064298;28;20545;-44
2023/07/04 01:28:14;;;;;;;14.90;13.90;;;13.90;1.00;;;;;;5088803;28;20851;-47
2023/07/04 01:30:42;;;;;;;15.30;14.17;;;13.90;99.90;;;;;;5088749;28;20414;-46
2023/07/04 01:33:09;;;;;;;15.23;14.03;;;13.80;99.90;;;;;;5088357;28;20916;-44
2023/07/04 01:35:36;;;;;;;14.30;13.50;;;13.80;99.90;;;;;;5088628;28;20414;-47
2023/07/04 01:38:02;;;;;;;15.30;14.20;;;13.70;1.00;;;;;;5088519;28;20878;-43
2023/07/04 01:40:30;;;;;;;15.00;13.90;;;13.70;99.90;;;;;;5089996;28;20458;-44
2023/07/04 01:42:55;;;;;;;15.10;14.10;;;13.70;98.90;;;;;;5092528;28;20976;-44
2023/07/04 01:45:21;;;;;;;15.30;13.97;;;13.70;1.00;;;;;;5092707;28;20769;-49
2023/07/04 01:47:47;;;;;;;15.00;14.10;;;13.70;47.10;;;;;;5078708;28;20191;-46
2023/07/04 01:50:13;;;;;;;14.60;13.70;;;13.70;99.90;;;;;;5092305;28;20176;-45
2023/07/04 01:52:40;;;;;;;14.87;13.97;;;13.70;99.90;;;;;;5091154;28;20965;-47
2023/07/04 01:55:08;;;;;;;14.53;13.70;;;13.70;99.90;;;;;;5084608;28;20926;-45
2023/07/04 01:57:34;;;;;;;15.03;14.13;;;13.60;99.90;;;;;;5092166;28;20418;-45
2023/07/04 02:00:00;;;;;;;15.83;14.70;;;13.60;1.00;;;;;;5085661;28;20596;-44
2023/07/04 02:02:25;;;;;;;15.60;14.40;;;13.60;1.00;;;;;;5090848;28;20422;-45
2023/07/04 02:04:51;;;;;;;15.10;14.17;;;13.60;99.90;;;;;;5092007;28;20721;-48
2023/07/04 02:07:17;;;;;;;14.70;13.70;;;13.60;99.90;;;;;;5092069;28;20180;-47
2023/07/04 02:09:43;;;;;;;14.73;13.70;;;13.50;1.00;;;;;;5091943;28;20639;-44
2023/07/04 02:12:09;;;;;;;13.80;12.80;;;13.50;1.00;;;;;;5091639;28;20264;-44
2023/07/04 02:14:35;;;;;;;14.90;13.90;;;13.50;1.00;;;;;;5091845;28;20417;-47
2023/07/04 02:17:01;;;;;;;15.30;14.00;;;13.50;1.00;;;;;;5091832;28;20912;-47
2023/07/04 02:19:27;;;;;;;14.30;13.40;;;13.50;1.00;;;;;;5091849;28;20515;-44
2023/07/04 02:21:52;;;;;;;15.37;14.27;;;13.50;1.00;;;;;;5091527;28;20176;-42
2023/07/04 02:24:18;;;;;;;14.40;13.60;;;13.50;1.00;;;;;;5091520;28;20286;-46
2023/07/04 02:26:43;;;;;;;14.67;13.67;;;13.40;1.00;;;;;;5091577;28;20760;-47
2023/07/04 02:29:09;;;;;;;15.13;14.13;;;13.40;1.00;;;;;;5091695;28;20685;-45
2023/07/04 02:31:35;;;;;;;14.50;13.60;;;13.40;1.00;;;;;;5091791;28;20280;-46
2023/07/04 02:34:00;;;;;;;14.27;13.30;;;13.40;99.90;;;;;;5080183;28;20193;-48
2023/07/04 02:36:26;;;;;;;15.70;14.43;;;13.40;99.90;;;;;;5088841;28;20185;-48
2023/07/04 02:38:52;;;;;;;14.67;13.67;;;13.50;99.90;;;;;;5091507;28;20207;-46
2023/07/04 02:41:17;;;;;;;14.60;13.70;;;13.50;99.90;;;;;;5091554;28;20188;-46
2023/07/04 02:43:43;;;;;;;14.70;13.80;;;13.50;99.90;;;;;;5091321;28;20191;-44
2023/07/04 02:46:09;;;;;;;14.93;13.67;;;13.50;99.90;;;;;;5086072;28;20189;-45
2023/07/04 02:48:35;;;;;;;15.27;14.27;;;13.50;99.90;;;;;;5082868;28;20572;-46
2023/07/04 02:51:01;;;;;;;14.70;13.80;;;13.50;99.90;;;;;;5090836;28;20669;-46
2023/07/04 02:53:27;;;;;;;14.70;13.60;;;13.50;99.90;;;;;;5083538;28;20181;-47
2023/07/04 02:55:54;;;;;;;15.10;13.80;;;13.50;99.90;;;;;;5089818;28;20441;-45
2023/07/04 02:58:20;;;;;;;14.87;13.97;;;13.50;99.90;;;;;;5090907;28;20418;-45
2023/07/04 03:00:49;;;;;;;15.10;14.17;;;13.50;99.90;;;;;;5083598;28;20443;-43
2023/07/04 03:03:16;;;;;;;15.00;14.10;;;13.50;99.90;;;;;;5091135;28;20468;-44
2023/07/04 03:05:43;;;;;;;14.90;14.00;;;13.50;99.90;;;;;;5090767;28;20440;-43
2023/07/04 03:08:09;;;;;;;14.70;13.50;;;13.50;1.00;;;;;;5090859;28;20421;-46
2023/07/04 03:10:34;;;;;;;15.37;14.10;;;13.40;1.00;;;;;;5090591;28;20937;-47
2023/07/04 03:13:00;;;;;;;15.00;13.80;;;13.40;1.00;;;;;;5090706;28;20556;-45
2023/07/04 03:15:26;;;;;;;14.53;13.53;;;13.40;1.00;;;;;;5090874;28;20674;-44
2023/07/04 03:17:52;;;;;;;14.83;13.73;;;13.40;1.00;;;;;;5091067;28;20193;-44
2023/07/04 03:20:18;;;;;;;15.27;14.13;;;13.50;1.00;;;;;;5090373;28;20207;-45
2023/07/04 03:22:44;;;;;;;14.67;13.77;;;13.50;1.00;;;;;;5090602;28;20176;-45
2023/07/04 03:25:11;;;;;;;14.30;13.40;;;13.50;1.00;;;;;;5090202;28;20458;-47
2023/07/04 03:27:38;;;;;;;14.83;13.83;;;13.50;1.00;;;;;;5090619;28;20501;-44
2023/07/04 03:30:06;;;;;;;14.63;13.70;;;13.50;1.00;;;;;;5090409;28;20437;-45
2023/07/04 03:32:32;;;;;;;15.03;14.03;;;13.60;1.00;;;;;;5090427;28;20916;-47
2023/07/04 03:35:01;;;;;;;13.83;13.03;;;13.60;1.00;;;;;;5063251;28;20420;-50
2023/07/04 03:37:31;;;;;;;14.33;13.40;;;13.60;1.00;;;;;;5090348;28;20422;-46
2023/07/04 03:39:57;;;;;;;13.97;13.07;;;13.60;1.00;;;;;;5090456;28;20554;-45
2023/07/04 03:42:24;;;;;;;14.53;13.30;;;13.60;1.00;;;;;;5090147;28;20410;-44
2023/07/04 03:44:49;;;;;;;14.77;13.87;;;13.60;1.00;;;;;;5090019;28;20753;-46
2023/07/04 03:47:15;;;;;;;14.23;13.23;;;13.70;1.00;;;;;;5076449;28;20418;-44
2023/07/04 03:49:41;;;;;;;13.53;12.70;;;13.60;1.00;;;;;;5090048;28;20196;-43
2023/07/04 03:52:07;;;;;;;13.80;12.80;;;13.70;1.00;;;;;;5090274;28;20722;-48
2023/07/04 03:54:32;;;;;;;14.37;13.57;;;13.70;1.00;;;;;;5079231;28;20275;-47
2023/07/04 03:56:58;;;;;;;13.73;12.80;;;13.70;1.00;;;;;;5076130;28;20980;-44
2023/07/04 03:59:24;;;;;;;13.97;13.07;;;13.80;1.00;;;;;;5075189;28;20200;-43
2023/07/04 04:01:49;;;;;;;13.60;12.80;;;13.80;1.00;;;;;;5083146;28;20176;-46
2023/07/04 04:04:15;;;;;;;13.93;13.10;;;13.80;1.00;;;;;;5089212;28;20176;-46
2023/07/04 04:06:40;;;;;;;13.90;13.10;;;13.80;1.00;;;;;;5089577;28;20184;-48
2023/07/04 04:09:06;;;;;;;14.03;13.23;;;13.90;1.00;;;;;;5089660;28;20207;-41
2023/07/04 04:11:32;;;;;;;13.80;12.90;;;13.90;1.00;;;;;;5089585;28;20222;-42
2023/07/04 04:13:58;;;;;;;13.43;12.63;;;14.00;1.00;;;;;;5089959;28;20245;-47
2023/07/04 04:16:23;;;;;;;13.50;12.70;;;14.00;1.00;;;;;;5089582;28;20271;-49
2023/07/04 04:18:52;;;;;;;12.93;12.23;;;14.00;1.00;;;;;;5089532;28;20208;-47
2023/07/04 04:21:17;;;;;;;12.70;12.00;;;14.10;1.00;;;;;;5087951;28;20284;-43
2023/07/04 04:23:43;;;;;;;13.83;13.00;;;14.20;1.00;;;;;;5089375;28;20418;-45
2023/07/04 04:26:09;;;;;;;14.10;13.10;;;14.20;1.00;;;;;;5089425;28;20198;-45
2023/07/04 04:28:35;;;;;;;13.83;12.93;;;14.30;1.00;;;;;;5089471;28;20657;-43
2023/07/04 04:31:01;;;;;;;14.50;13.33;;;14.40;1.00;;;;;;5089192;28;20505;-42
2023/07/04 04:33:27;;;;;;;14.57;13.30;;;14.50;1.00;;;;;;5089246;28;20184;-42
2023/07/04 04:35:52;;;;;;;14.73;13.50;;;14.50;1.00;;;;;;5089312;28;20768;-46
2023/07/04 04:38:18;;;;;;;14.57;13.57;;;14.60;1.00;;;;;;5089059;28;20263;-43
2023/07/04 04:40:44;;;;;;;15.87;14.60;;;14.70;1.00;;;;;;5089377;28;20202;-43
2023/07/04 04:43:09;;;;;;;15.53;14.20;;;14.80;1.00;;;;;;5089235;28;20694;-44
2023/07/04 04:45:36;;;;;;;14.60;13.07;;;14.80;99.90;;;;;;5088635;28;20539;-43
2023/07/04 04:48:06;;;;;;;13.80;13.00;;;14.90;99.90;;;;;;5076309;28;20194;-46
2023/07/04 04:50:31;;;;;;;14.57;13.57;;;15.00;99.90;;;;;;5089127;28;20823;-43
2023/07/04 04:52:58;;;;;;;14.20;13.30;;;15.10;99.90;;;;;;5085579;28;20473;-49
2023/07/04 04:55:24;;;;;;;14.43;13.40;;;15.20;2.10;;;;;;5083774;28;20223;-43
2023/07/04 04:57:51;;;;;;;13.63;12.83;;;15.20;1.00;;;;;;5089057;28;20947;-44
2023/07/04 05:00:17;;;;;;;13.00;12.20;;;15.30;1.00;;;;;;5081131;28;20466;-44
2023/07/04 05:02:44;;;;;;;14.30;13.30;;;15.40;1.00;;;;;;5088838;28;20491;-44
2023/07/04 05:05:10;;;;;;;14.07;13.17;;;15.60;99.90;;;;;;5088579;28;20454;-47
2023/07/04 05:07:36;;;;;;;13.20;12.40;;;15.70;99.90;;;;;;5088783;28;20449;-44
2023/07/04 05:10:02;;;;;;;13.50;12.70;;;15.90;1.00;;;;;;5088959;28;20896;-45
2023/07/04 05:12:28;;;;;;;13.63;12.83;;;16.10;99.90;;;;;;5088834;28;20208;-43
2023/07/04 05:14:54;;;;;;;13.80;13.00;;;16.30;27.40;;;;;;5088718;28;20932;-43
2023/07/04 05:17:19;;;;;;;12.10;11.30;;;16.50;99.90;;;;;;5088550;28;20185;-43
2023/07/04 05:19:49;;;;;;;14.37;13.37;;;16.70;1.00;;;;;;5088290;28;20662;-49
2023/07/04 05:22:16;;;;;;;13.73;12.93;;;16.90;99.90;;;;;;5087219;28;20712;-46
2023/07/04 05:24:41;;;;;;;14.63;13.63;;;17.20;1.00;;;;;;5088359;28;20474;-46
2023/07/04 05:27:07;;;;;;;13.73;12.93;;;17.40;99.90;;;;;;5088939;28;20513;-45
2023/07/04 05:29:32;;;;;;;13.10;12.30;;;17.50;1.00;;;;;;5088610;28;20199;-45
2023/07/04 05:31:58;;;;;;;13.77;12.83;;;17.60;1.00;;;;;;5088371;28;20184;-50
2023/07/04 05:34:24;;;;;;;13.60;12.80;;;17.70;99.90;;;;;;5088244;28;20180;-45
2023/07/04 05:36:49;;;;;;;13.90;13.10;;;17.90;99.90;;;;;;5088521;28;20180;-49
2023/07/04 05:39:15;;;;;;;14.40;13.37;;;18.10;1.00;;;;;;5088316;28;20250;-48
2023/07/04 05:41:40;;;;;;;14.50;13.27;;;18.30;99.90;;;;;;5088502;28;21008;-45
2023/07/04 05:44:08;;;;;;;13.80;13.00;;;18.40;1.00;;;;;;5088279;28;20203;-45
2023/07/04 05:46:35;;;;;;;14.20;13.30;;;18.60;99.90;;;;;;5079637;28;20173;-44
2023/07/04 05:49:01;;;;;;;14.27;13.27;;;18.70;99.90;;;;;;5083625;28;20498;-47
2023/07/04 05:51:28;;;;;;;14.30;13.27;;;18.80;99.90;;;;;;5088355;28;20426;-42
2023/07/04 05:53:54;;;;;;;14.27;13.27;;;19.00;99.90;;;;;;5079169;28;20823;-45
2023/07/04 05:56:21;;;;;;;13.70;12.80;;;19.10;99.90;;;;;;5088629;28;20433;-43
2023/07/04 05:58:49;;;;;;;12.20;11.47;;;19.10;99.90;;;;;;5088698;28;20692;-44
2023/07/04 06:01:22;;;;;;;14.47;13.57;;;19.30;99.90;;;;;;5080172;28;20414;-47
2023/07/04 06:03:47;;;;;;;13.57;12.57;;;19.30;99.90;;;;;;5088009;28;20418;-42
2023/07/04 06:06:29;;;;;;;14.27;13.27;;;19.40;99.90;;;;;;5088211;28;20410;-46
2023/07/04 06:08:56;;;;;;;13.07;12.27;;;19.50;99.90;;;;;;5088473;28;20641;-47
2023/07/04 06:11:26;;;;;;;13.90;13.00;;;19.60;99.90;;;;;;5088404;28;20829;-48
2023/07/04 06:13:51;;;;;;;13.97;13.17;;;19.60;99.40;;;;;;5087887;28;20475;-45
2023/07/04 06:16:17;;;;;;;14.83;13.67;;;19.60;99.20;;;;;;5088268;28;20886;-48
2023/07/04 06:18:43;;;;;;;13.87;13.03;;;19.70;98.90;;;;;;5088447;28;20602;-49
2023/07/04 06:21:10;;;;;;;14.00;13.07;;;19.70;98.90;;;;;;5088453;28;20668;-51
2023/07/04 06:23:36;;;;;;;13.07;12.17;;;19.70;98.50;;;;;;5082695;28;20409;-45
2023/07/04 06:26:02;;;;;;;14.03;12.93;;;19.80;98.50;;;;;;5079398;28;20922;-45
2023/07/04 06:28:28;;;;;;;13.57;12.77;;;19.90;98.20;;;;;;5091797;28;20461;-49
2023/07/04 06:30:54;;;;;;;14.60;13.70;;;19.90;98.20;;;;;;5091685;28;20446;-42
2023/07/04 06:33:19;;;;;;;13.63;12.73;;;20.00;98.60;;;;;;5077488;28;20192;-49
2023/07/04 06:35:45;;;;;;;14.27;13.47;;;20.10;99.00;;;;;;5091557;28;20176;-47
2023/07/04 06:38:11;;;;;;;13.40;12.70;;;20.10;98.20;;;;;;5091446;28;20184;-50
2023/07/04 06:40:37;;;;;;;14.60;13.70;;;20.30;98.30;;;;;;5091442;28;20295;-53
2023/07/04 06:43:03;;;;;;;14.60;13.70;;;20.50;98.00;;;;;;5091329;28;20212;-47
2023/07/04 06:45:34;;;;;;;13.97;13.17;;;20.50;96.80;;;;;;5091428;28;20502;-50
2023/07/04 06:47:59;;;;;;;14.30;13.40;;;20.50;96.40;;;;;;5065170;28;20510;-49
2023/07/04 06:50:25;;;;;;;14.10;13.30;;;20.40;96.00;;;;;;5091160;28;20486;-48
2023/07/04 06:52:52;;;;;;;14.00;13.00;;;20.40;96.10;;;;;;5088485;28;20751;-50
2023/07/04 06:55:17;;;;;;;14.37;13.37;;;20.40;95.90;;;;;;5084943;28;20422;-49
2023/07/04 06:57:43;;;;;;;13.00;12.10;;;20.50;95.70;;;;;;5090927;28;20406;-47
2023/07/04 07:00:09;;;;;;;14.53;13.43;;;20.50;95.50;;;;;;5084268;28;20258;-52
2023/07/04 07:02:35;;;;;;;14.47;13.53;;;20.60;95.50;;;;;;5091171;28;20415;-44
2023/07/04 07:05:01;;;;;;;13.90;13.10;;;20.70;95.80;;;;;;5090817;28;20422;-44
2023/07/04 07:07:26;;;;;;;13.70;12.90;;;20.70;94.40;;;;;;5091049;28;20211;-50
2023/07/04 07:09:53;;;;;;;14.60;13.57;;;20.80;94.00;;;;;;5090454;28;20457;-47
2023/07/04 07:12:18;;;;;;;15.17;14.17;;;20.70;93.50;;;;;;5077134;28;20188;-48
2023/07/04 07:14:46;;;;;;;15.03;14.03;;;20.70;92.70;;;;;;5091036;28;20472;-46
2023/07/04 07:17:12;;;;;;;14.07;13.27;;;20.70;92.30;;;;;;5090673;28;20177;-50
2023/07/04 07:19:37;;;;;;;14.43;13.53;;;20.80;92.60;;;;;;5090722;28;20473;-45
2023/07/04 07:22:03;;;;;;;14.27;13.27;;;20.90;92.70;;;;;;5090646;28;20616;-47
2023/07/04 07:24:29;;;;;;;13.60;12.70;;;20.90;91.80;;;;;;5090502;28;20224;-42
2023/07/04 07:26:58;;;;;;;13.97;13.17;;;21.00;90.70;;;;;;5090467;28;20565;-46
2023/07/04 07:29:26;;;;;;;14.20;13.30;;;21.00;90.40;;;;;;5090678;28;20417;-47
2023/07/04 07:31:52;;;;;;;13.70;12.80;;;21.10;90.10;;;;;;5091257;28;20419;-42
2023/07/04 07:34:18;;;;;;;13.60;12.70;;;21.20;90.50;;;;;;5090237;28;20806;-46
2023/07/04 07:36:45;;;;;;;12.87;12.07;;;21.20;88.90;;;;;;5090208;28;20872;-46
2023/07/04 07:39:13;;;;;;;13.53;12.77;;;21.30;88.60;;;;;;5089137;28;20462;-45
2023/07/04 07:41:45;;;;;;;13.23;12.43;;;21.10;86.80;;;;;;5090346;28;20501;-45
2023/07/04 07:44:13;;;;;;;13.40;12.60;;;21.30;88.00;;;;;;5090091;28;20502;-46
2023/07/04 07:46:39;;;;;;;12.40;11.70;;;21.30;87.60;;;;;;5081052;28;20747;-47
2023/07/04 07:49:05;;;;;;;13.33;12.50;;;21.40;86.60;;;;;;5085637;28;20700;-49
2023/07/04 07:51:30;;;;;;;13.13;12.23;;;21.40;85.80;;;;;;5090152;28;20421;-50
2023/07/04 07:53:58;;;;;;;14.10;13.30;;;21.50;83.80;;;;;;5080656;28;20189;-45
2023/07/04 07:56:25;;;;;;;13.37;12.47;;;21.60;82.70;;;;;;5090155;28;20665;-45
2023/07/04 07:58:51;;;;;;;13.37;12.37;;;21.40;80.60;;;;;;5087439;28;20527;-43
2023/07/04 08:01:25;;;;;;;13.20;12.47;;;21.50;80.40;;;;;;5077980;28;20418;-53
2023/07/04 08:03:52;;;;;;;13.33;12.53;;;21.70;79.60;;;;;;5089634;28;20688;-47
2023/07/04 08:06:34;;;;;;;13.50;12.70;;;21.80;79.90;;;;;;5089710;28;20920;-48
2023/07/04 08:09:01;;;;;;;12.87;12.17;;;21.70;78.20;;;;;;5089650;28;20433;-50
2023/07/04 08:11:28;;;;;;;13.60;12.80;;;21.70;77.80;;;;;;5090040;28;20410;-46
2023/07/04 08:13:55;;;;;;;14.00;13.20;;;21.90;76.70;;;;;;5089760;28;20433;-47
2023/07/04 08:16:44;;;;;;;14.07;13.27;;;21.90;78.50;;;;;;5090104;28;20521;-48
2023/07/04 08:19:10;;;;;;;14.30;13.50;;;22.00;76.90;;;;;;5089133;28;20466;-49
2023/07/04 08:21:35;;;;;;;13.70;13.00;;;22.20;77.10;;;;;;5089254;28;20418;-49
2023/07/04 08:24:02;;;;;;;13.67;12.87;;;22.20;74.00;;;;;;5089604;28;20525;-45
2023/07/04 08:26:28;;;;;;;14.30;13.50;;;22.20;71.80;;;;;;5089602;28;20508;-51
2023/07/04 08:28:55;;;;;;;13.80;12.90;;;22.10;72.60;;;;;;5089270;28;20415;-53
2023/07/04 08:31:21;;;;;;;14.23;13.40;;;22.20;73.90;;;;;;5089300;28;20188;-47
2023/07/04 08:33:47;;;;;;;13.33;12.63;;;22.40;73.40;;;;;;5089192;28;20751;-48
2023/07/04 08:36:14;;;;;;;14.20;13.40;;;22.60;69.30;;;;;;5089030;28;20430;-53
2023/07/04 08:38:40;;;;;;;14.00;13.10;;;22.70;68.60;;;;;;5089506;28;20587;-53
2023/07/04 08:41:27;;;;;;;12.80;12.10;;;22.70;67.90;;;;;;5089124;28;20425;-48
2023/07/04 08:44:04;;;;;;;14.40;13.30;;;22.70;66.30;;;;;;5089004;28;20425;-48
2023/07/04 08:46:35;;;;;;;13.23;12.53;;;22.60;66.30;;;;;;5081004;28;20984;-47
2023/07/04 08:49:02;;;;;;;14.87;13.77;;;22.70;66.10;;;;;;5083926;28;20410;-50
2023/07/04 08:51:42;;;;;;;13.30;12.50;;;22.80;66.10;;;;;;5088959;28;20928;-48
2023/07/04 08:54:12;;;;;;;14.40;13.60;;;22.90;66.70;;;;;;5079375;28;20459;-50
2023/07/04 08:56:38;;;;;;;13.17;12.30;;;23.20;64.50;;;;;;5089028;28;20573;-53
2023/07/04 08:59:25;;;;;;;14.10;13.30;;;23.30;63.10;;;;;;5088731;28;20458;-46
2023/07/04 09:02:11;;;;;;;14.13;13.33;;;23.20;63.30;;;;;;5082907;28;20411;-52
2023/07/04 09:05:01;;;;;;;14.33;13.43;;;23.50;64.50;;;;;;5089016;28;20426;-52
2023/07/04 09:07:55;;;;;;;13.83;13.10;;;23.80;62.90;;;;;;5088976;28;20419;-50
2023/07/04 09:10:38;;;;;;;13.90;13.10;;;24.00;62.40;;;;;;5069972;28;20430;-48
2023/07/04 09:13:08;;;;;;;14.07;13.20;;;24.10;62.30;;;;;;5088634;28;20414;-50
2023/07/04 09:15:37;;;;;;;14.13;13.30;;;24.30;61.40;;;;;;5088738;28;20402;-50
2023/07/04 09:18:22;;;;;;;14.20;13.40;;;24.40;60.50;;;;;;5088586;28;20414;-52
2023/07/04 09:20:56;;;;;;;14.67;13.77;;;24.70;58.60;;;;;;5079295;28;20476;-48
2023/07/04 09:23:23;;;;;;;14.40;13.43;;;24.90;57.30;;;;;;5085069;28;20410;-50
2023/07/04 09:25:52;;;;;;;14.30;13.50;;;24.90;55.80;;;;;;5088504;28;20541;-48
2023/07/04 09:28:17;;;;;;;14.43;13.63;;;25.20;55.80;;;;;;5088558;28;20418;-46
2023/07/04 09:30:43;;;;;;;13.93;13.23;;;25.50;54.00;;;;;;5088799;28;20423;-50
2023/07/04 09:33:09;;;;;;;14.83;14.03;;;25.90;53.60;;;;;;5088457;28;20259;-48
2023/07/04 09:35:36;;;;;;;13.90;13.10;;;26.20;52.20;;;;;;5088386;28;20245;-55
2023/07/04 09:38:02;;;;;;;13.77;13.07;;;26.60;51.00;;;;;;5088212;28;20920;-50
2023/07/04 09:40:48;;;;;;;13.70;12.90;;;26.80;49.50;;;;;;5088634;28;20956;-49
2023/07/04 09:43:24;;;;;;;14.20;13.40;;;27.00;49.30;;;;;;5088370;28;20414;-51
2023/07/04 09:45:50;;;;;;;14.67;13.67;;;27.30;47.20;;;;;;5085972;28;20496;-50
2023/07/04 09:48:24;;;;;;;14.33;13.53;;;27.50;47.30;;;;;;5077376;28;20418;-48
2023/07/04 09:50:49;;;;;;;13.43;12.73;;;27.50;46.30;;;;;;5088419;28;20235;-49
2023/07/04 09:53:19;;;;;;;14.73;13.73;;;27.40;45.30;;;;;;5082331;28;20419;-52
2023/07/04 09:55:59;;;;;;;13.30;12.60;;;27.60;44.40;;;;;;5085445;28;20188;-48
2023/07/04 09:58:26;;;;;;;13.50;12.70;;;27.30;42.30;;;;;;5088383;28;20462;-47
2023/07/04 10:01:16;;;;;;;13.30;12.50;;;27.10;44.30;;;;;;5079733;28;20523;-51
2023/07/04 10:03:48;;;;;;;14.00;13.20;;;27.60;44.80;;;;;;5092072;28;20425;-46
2023/07/04 10:06:30;;;;;;;13.60;12.90;;;28.50;42.10;;;;;;5092385;28;20587;-50
2023/07/04 10:08:56;;;;;;;14.63;13.80;;;28.20;99.90;;;;;;5091843;28;20418;-47
2023/07/04 10:11:32;;;;;;;16.10;15.10;;;28.70;99.90;;;;;;5092004;28;20425;-51
2023/07/04 10:14:00;;;;;;;14.07;13.27;;;29.40;99.90;;;;;;5092067;28;20474;-51
2023/07/04 10:16:26;;;;;;;14.43;13.53;;;29.50;99.90;;;;;;5090649;28;20460;-48
2023/07/04 10:19:21;;;;;;;14.03;13.03;;;29.60;99.90;;;;;;5091734;28;20508;-50
2023/07/04 10:21:51;;;;;;;14.03;13.13;;;28.90;99.90;;;;;;5091412;28;20196;-50
2023/07/04 10:24:22;;;;;;;14.07;13.27;;;28.90;99.90;;;;;;5091410;28;20522;-52
2023/07/04 10:26:51;;;;;;;13.50;12.70;;;29.00;99.90;;;;;;5091666;28;20418;-52
2023/07/04 10:29:24;;;;;;;15.23;14.33;;;29.60;99.90;;;;;;5091731;28;20445;-53
2023/07/04 10:31:51;;;;;;;14.57;13.57;;;29.30;99.90;;;;;;5091586;28;20418;-47
2023/07/04 10:34:20;;;;;;;14.80;13.90;;;29.30;99.90;;;;;;5091404;28;20788;-48
2023/07/04 10:36:49;;;;;;;15.60;14.70;;;29.20;99.90;;;;;;5091616;28;20900;-49
2023/07/04 10:39:16;;;;;;;16.63;15.53;;;28.30;99.90;;;;;;5091008;28;20462;-49
2023/07/04 10:42:16;;;;;;;16.70;15.60;;;27.80;99.90;;;;;;5091432;28;20419;-49
2023/07/04 10:44:46;;;;;;;17.50;16.40;;;27.90;99.90;;;;;;5091712;28;20453;-53
2023/07/04 10:47:23;;;;;;;17.60;16.30;;;27.60;99.90;;;;;;5077601;28;20431;-52
2023/07/04 10:49:54;;;;;;;18.13;17.03;;;27.70;99.90;;;;;;5091288;28;20422;-48
2023/07/04 10:52:29;;;;;;;17.43;16.33;;;27.70;99.90;;;;;;5089612;28;20847;-51
2023/07/04 10:54:54;;;;;;;17.83;16.80;;;28.20;99.90;;;;;;5081475;28;20413;-49
2023/07/04 10:57:48;;;;;;;17.70;16.50;;;28.10;99.90;;;;;;5091195;28;20973;-48
2023/07/04 11:00:33;;;;;;;17.67;16.57;;;28.90;99.90;;;;;;5081292;28;20693;-51
2023/07/04 11:03:10;;;;;;;16.80;15.60;;;29.60;99.90;;;;;;5091365;28;20418;-48
2023/07/04 11:05:51;;;;;;;17.97;16.87;;;29.70;99.90;;;;;;5090771;28;20841;-51
2023/07/04 11:08:23;;;;;;;16.50;15.50;;;30.30;99.90;;;;;;5090879;28;20414;-50
2023/07/04 11:11:05;;;;;;;18.20;17.03;;;30.70;99.90;;;;;;5090863;28;20431;-53
2023/07/04 11:13:31;;;;;;;17.43;16.33;;;31.60;99.90;;;;;;5090662;28;20525;-52
2023/07/04 11:16:03;;;;;;;18.30;17.10;;;31.70;99.90;;;;;;5090845;28;20426;-51
2023/07/04 11:18:32;;;;;;;19.10;17.90;;;30.60;99.90;;;;;;5090718;28;20936;-48
2023/07/04 11:21:05;;;;;;;19.70;18.43;;;30.50;99.90;;;;;;5090652;28;20423;-52
2023/07/04 11:23:51;;;;;;;18.10;16.90;;;30.20;99.90;;;;;;5090446;28;20421;-47
2023/07/04 11:26:19;;;;;;;18.20;17.00;;;30.60;99.90;;;;;;5090636;28;20448;-46
2023/07/04 11:29:06;;;;;;;17.37;16.27;;;30.60;99.90;;;;;;5090540;28;20429;-50
2023/07/04 11:31:34;;;;;;;18.30;17.20;;;31.00;99.90;;;;;;5090418;28;20803;-47
2023/07/04 11:34:04;;;;;;;19.17;18.00;;;31.50;99.90;;;;;;5090533;28;20506;-48
2023/07/04 11:36:36;;;;;;;19.50;18.30;;;31.70;99.90;;;;;;5090447;28;20441;-46
2023/07/04 11:39:16;;;;;;;19.00;17.80;;;31.50;99.90;;;;;;5090139;28;20976;-45
2023/07/04 11:41:42;;;;;;;20.27;18.73;;;30.50;99.90;;;;;;5090332;28;20407;-48
2023/07/04 11:44:21;;;;;;;18.60;17.40;;;30.10;99.90;;;;;;5090184;28;20429;-49
2023/07/04 11:47:01;;;;;;;20.13;18.83;;;30.50;99.90;;;;;;5079819;28;20408;-55
2023/07/04 11:49:27;;;;;;;19.30;18.00;;;31.10;99.90;;;;;;5074301;28;20406;-53
2023/07/04 11:52:25;;;;;;;20.87;19.27;;;31.50;99.90;;;;;;5090009;28;20429;-48
2023/07/04 11:54:59;;;;;;;20.03;18.73;;;31.60;99.90;;;;;;5079620;28;20453;-51
2023/07/04 11:57:55;;;;;;;20.53;19.10;;;32.00;99.90;;;;;;5090460;28;20410;-48
2023/07/04 12:00:43;;;;;;;21.63;19.97;;;32.10;99.90;;;;;;5081307;28;20891;-52
2023/07/04 12:03:36;;;;;;;20.67;19.17;;;31.80;99.90;;;;;;5083325;28;20541;-47
2023/07/04 12:06:01;;;;;;;21.40;19.93;;;30.60;99.90;;;;;;5090177;28;20468;-48
2023/07/04 12:08:41;;;;;;;21.40;19.80;;;30.10;99.90;;;;;;5089757;28;20908;-50
2023/07/04 12:11:14;;;;;;;20.40;19.00;;;28.90;99.90;;;;;;5089419;28;20242;-48
2023/07/04 12:13:41;;;;;;;20.97;19.37;;;28.50;99.90;;;;;;5089791;28;20414;-44
2023/07/04 12:16:07;;;;;;;20.33;18.83;;;28.30;99.90;;;;;;5089644;28;20511;-49
2023/07/04 12:18:36;;;;;;;21.60;20.10;;;28.10;99.90;;;;;;5089502;28;20454;-47
2023/07/04 12:21:02;;;;;;;20.60;19.10;;;28.00;99.90;;;;;;5089830;28;20647;-45
2023/07/04 12:23:29;;;;;;;20.77;19.27;;;27.60;99.90;;;;;;5089312;28;20426;-47
2023/07/04 12:25:59;;;;;;;21.30;19.80;;;27.60;99.90;;;;;;5088823;28;20224;-48
2023/07/04 12:28:27;;;;;;;21.73;20.00;;;27.60;99.90;;;;;;5089462;28;20406;-50
2023/07/04 12:30:58;;;;;;;21.23;19.70;;;27.70;99.90;;;;;;5087929;28;20783;-51
2023/07/04 12:33:33;;;;;;;21.93;20.33;;;27.50;99.90;;;;;;5089233;28;20415;-49
2023/07/04 12:36:06;;;;;;;21.67;20.00;;;27.40;99.90;;;;;;5089157;28;20425;-52
2023/07/04 12:38:32;;;;;;;22.23;20.57;;;27.50;99.90;;;;;;5089639;28;20760;-50
2023/07/04 12:41:00;;;;;;;24.10;22.20;;;27.60;99.90;;;;;;5089085;28;20785;-51